createdAt,value
2023-03-06T00:00:23.999Z,99307.28
2023-03-06T00:02:52.143Z,99300.44
2023-03-06T00:05:19.349Z,99296.84
2023-03-06T00:07:45.888Z,99296.78
2023-03-06T00:10:19.004Z,99298.38
2023-03-06T00:12:45.561Z,99308.28
2023-03-06T00:15:13.508Z,99303.03
2023-03-06T00:17:40.797Z,99301.25
2023-03-06T00:20:08.872Z,99298.81
2023-03-06T00:22:35.648Z,99297.69
2023-03-06T00:25:02.156Z,99292.56
2023-03-06T00:27:30.603Z,99299.00
2023-03-06T00:29:58.585Z,99294.72
2023-03-06T00:32:26.405Z,99298.81
2023-03-06T00:34:54.196Z,99298.13
2023-03-06T00:37:22.821Z,99292.47
2023-03-06T00:39:49.673Z,99296.34
2023-03-06T00:42:17.518Z,99295.22
2023-03-06T00:44:45.238Z,99295.72
2023-03-06T00:47:12.338Z,99298.44
2023-03-06T00:49:39.090Z,99301.16
2023-03-06T00:52:05.740Z,99305.59
2023-03-06T00:54:32.291Z,99296.31
2023-03-06T00:56:58.859Z,99301.94
2023-03-06T00:59:25.422Z,99298.16
2023-03-06T01:01:51.983Z,99294.81
2023-03-06T01:04:18.594Z,99298.16
2023-03-06T01:06:45.469Z,99294.50
2023-03-06T01:09:12.326Z,99300.56
2023-03-06T01:11:38.860Z,99296.69
2023-03-06T01:14:05.403Z,99296.06
2023-03-06T01:16:32.068Z,99297.41
2023-03-06T01:18:58.940Z,99300.94
2023-03-06T01:21:25.919Z,99298.44
2023-03-06T01:23:52.482Z,99301.34
2023-03-06T01:26:19.050Z,99301.06
2023-03-06T01:28:45.890Z,99301.88
2023-03-06T01:31:12.762Z,99300.94
2023-03-06T01:33:39.331Z,99294.63
2023-03-06T01:36:08.430Z,99294.91
2023-03-06T01:38:36.037Z,99295.78
2023-03-06T01:41:04.004Z,99295.25
2023-03-06T01:43:36.096Z,99293.25
2023-03-06T01:46:21.310Z,99295.31
2023-03-06T01:48:50.151Z,99285.16
2023-03-06T01:51:17.448Z,99285.22
2023-03-06T01:53:45.984Z,99279.84
2023-03-06T01:56:14.206Z,99276.38
2023-03-06T01:58:43.791Z,99274.56
2023-03-06T02:01:13.184Z,99274.69
2023-03-06T02:03:41.471Z,99271.47
2023-03-06T02:06:08.710Z,99266.22
2023-03-06T02:08:35.563Z,99268.50
2023-03-06T02:11:07.916Z,99265.63
2023-03-06T02:13:35.661Z,99273.28
2023-03-06T02:16:02.430Z,99269.91
2023-03-06T02:18:30.277Z,99269.97
2023-03-06T02:21:04.022Z,99269.22
2023-03-06T02:23:36.733Z,99264.72
2023-03-06T02:26:04.149Z,99265.22
2023-03-06T02:28:30.842Z,99273.41
2023-03-06T02:30:57.528Z,99266.88
2023-03-06T02:33:27.232Z,99265.94
2023-03-06T02:35:59.878Z,99265.69
2023-03-06T02:38:37.414Z,99271.84
2023-03-06T02:41:07.684Z,99270.13
2023-03-06T02:43:38.083Z,99277.94
2023-03-06T02:46:04.758Z,99272.91
2023-03-06T02:48:31.377Z,99273.75
2023-03-06T02:50:58.056Z,99283.00
2023-03-06T02:53:25.008Z,99279.44
2023-03-06T02:55:51.966Z,99270.13
2023-03-06T02:58:22.309Z,99269.31
2023-03-06T03:00:49.606Z,99269.19
2023-03-06T03:03:17.354Z,99269.50
2023-03-06T03:05:43.964Z,99265.25
2023-03-06T03:08:10.756Z,99267.16
2023-03-06T03:10:37.280Z,99271.91
2023-03-06T03:13:03.859Z,99268.13
2023-03-06T03:15:30.425Z,99265.44
2023-03-06T03:17:56.985Z,99267.91
2023-03-06T03:20:23.959Z,99265.25
2023-03-06T03:22:53.330Z,99271.25
2023-03-06T03:25:20.927Z,99271.97
2023-03-06T03:27:47.703Z,99263.28
2023-03-06T03:30:15.367Z,99265.88
2023-03-06T03:32:41.905Z,99264.22
2023-03-06T03:35:09.630Z,99270.03
2023-03-06T03:37:36.752Z,99265.25
2023-03-06T03:40:05.127Z,99267.25
2023-03-06T03:42:31.751Z,99269.88
2023-03-06T03:44:58.290Z,99265.53
2023-03-06T03:47:25.288Z,99262.94
2023-03-06T03:49:51.830Z,99258.50
2023-03-06T03:52:18.348Z,99262.56
2023-03-06T03:54:44.942Z,99263.16
2023-03-06T03:57:11.677Z,99256.34
2023-03-06T03:59:38.281Z,99256.34
2023-03-06T04:02:05.131Z,99259.44
2023-03-06T04:04:31.832Z,99258.88
2023-03-06T04:06:58.536Z,99257.09
2023-03-06T04:09:25.396Z,99254.25
2023-03-06T04:11:52.160Z,99254.25
2023-03-06T04:14:18.812Z,99266.97
2023-03-06T04:16:45.360Z,99264.22
2023-03-06T04:19:11.888Z,99269.28
2023-03-06T04:21:38.433Z,99268.00
2023-03-06T04:24:05.453Z,99283.59
2023-03-06T04:26:32.027Z,99277.38
2023-03-06T04:28:59.030Z,99276.59
2023-03-06T04:31:25.722Z,99282.16
2023-03-06T04:33:52.257Z,99284.03
2023-03-06T04:36:30.245Z,99277.50
2023-03-06T04:38:57.489Z,99283.25
2023-03-06T04:41:24.167Z,99287.56
2023-03-06T04:43:51.264Z,99282.16
2023-03-06T04:46:17.917Z,99281.06
2023-03-06T04:48:44.570Z,99286.25
2023-03-06T04:51:13.760Z,99286.75
2023-03-06T04:53:40.404Z,99285.31
2023-03-06T04:56:07.439Z,99281.28
2023-03-06T04:58:34.056Z,99291.13
2023-03-06T05:01:00.808Z,99290.97
2023-03-06T05:03:27.480Z,99288.44
2023-03-06T05:05:54.032Z,99292.81
2023-03-06T05:08:20.854Z,99289.53
2023-03-06T05:10:56.083Z,99290.97
2023-03-06T05:13:22.687Z,99295.34
2023-03-06T05:15:49.333Z,99287.53
2023-03-06T05:18:16.849Z,99298.56
2023-03-06T05:20:43.637Z,99305.16
2023-03-06T05:23:10.196Z,99302.88
2023-03-06T05:25:39.502Z,99304.53
2023-03-06T05:28:07.167Z,99304.94
2023-03-06T05:30:33.966Z,99313.97
2023-03-06T05:33:01.364Z,99306.25
2023-03-06T05:35:28.280Z,99307.19
2023-03-06T05:37:55.077Z,99307.88
2023-03-06T05:40:21.667Z,99302.53
2023-03-06T05:42:48.226Z,99297.91
2023-03-06T05:45:15.201Z,99294.66
2023-03-06T05:47:41.752Z,99294.59
2023-03-06T05:50:10.530Z,99292.84
2023-03-06T05:52:39.570Z,99295.16
2023-03-06T05:55:06.854Z,99296.31
2023-03-06T05:57:33.537Z,99298.56
2023-03-06T06:00:00.147Z,99285.09
2023-03-06T06:02:26.859Z,99288.78
2023-03-06T06:04:53.584Z,99294.06
2023-03-06T06:07:20.291Z,99287.47
2023-03-06T06:09:46.817Z,99287.75
2023-03-06T06:12:15.419Z,99282.34
2023-03-06T06:14:42.048Z,99288.31
2023-03-06T06:17:09.049Z,99295.59
2023-03-06T06:19:35.768Z,99294.88
2023-03-06T06:22:05.456Z,99296.38
2023-03-06T06:24:33.035Z,99294.41
2023-03-06T06:27:03.395Z,99298.66
2023-03-06T06:29:30.882Z,99292.88
2023-03-06T06:31:57.670Z,99291.81
2023-03-06T06:34:25.440Z,99294.47
2023-03-06T06:36:53.734Z,99302.13
2023-03-06T06:39:22.571Z,99298.91
2023-03-06T06:42:05.582Z,99297.69
2023-03-06T06:44:38.512Z,99295.19
2023-03-06T06:47:23.977Z,99308.13
2023-03-06T06:49:52.806Z,99318.78
2023-03-06T06:52:19.532Z,99322.25
2023-03-06T06:54:46.224Z,99319.66
2023-03-06T06:57:13.262Z,99325.97
2023-03-06T06:59:39.802Z,99328.53
2023-03-06T07:02:07.233Z,99329.06
2023-03-06T07:04:34.126Z,99324.88
2023-03-06T07:07:01.225Z,99327.41
2023-03-06T07:09:30.046Z,99328.25
2023-03-06T07:11:56.784Z,99330.28
2023-03-06T07:14:23.544Z,99322.19
2023-03-06T07:16:50.236Z,99327.19
2023-03-06T07:19:16.807Z,99331.53
2023-03-06T07:21:43.334Z,99329.09
2023-03-06T07:24:09.876Z,99339.66
2023-03-06T07:26:36.840Z,99346.38
2023-03-06T07:29:04.512Z,99353.81
2023-03-06T07:31:31.392Z,99362.91
2023-03-06T07:33:58.050Z,99372.03
2023-03-06T07:36:24.884Z,99381.00
2023-03-06T07:38:51.419Z,99382.69
2023-03-06T07:41:21.879Z,99387.69
2023-03-06T07:43:49.787Z,99390.28
2023-03-06T07:46:16.400Z,99391.16
2023-03-06T07:48:43.178Z,99395.09
2023-03-06T07:51:15.461Z,99389.00
2023-03-06T07:53:42.259Z,99386.81
2023-03-06T07:56:09.512Z,99380.91
2023-03-06T07:58:37.790Z,99390.63
2023-03-06T08:01:09.731Z,99390.09
2023-03-06T08:03:36.332Z,99404.19
2023-03-06T08:06:17.876Z,99396.94
2023-03-06T08:08:46.564Z,99408.28
2023-03-06T08:11:15.031Z,99406.50
2023-03-06T08:13:43.079Z,99417.06
2023-03-06T08:16:10.365Z,99432.34
2023-03-06T08:18:40.069Z,99426.34
2023-03-06T08:21:10.509Z,99428.16
2023-03-06T08:23:37.737Z,99436.78
2023-03-06T08:26:11.847Z,99442.34
2023-03-06T08:28:38.434Z,99453.00
2023-03-06T08:31:26.424Z,99447.34
2023-03-06T08:33:54.692Z,99452.44
2023-03-06T08:36:21.223Z,99456.13
2023-03-06T08:38:47.949Z,99459.91
2023-03-06T08:41:14.473Z,99464.69
2023-03-06T08:43:41.060Z,99462.34
2023-03-06T08:46:07.693Z,99464.22
2023-03-06T08:48:34.416Z,99462.94
2023-03-06T08:51:01.033Z,99466.03
2023-03-06T08:53:41.752Z,99466.84
2023-03-06T08:56:16.424Z,99461.44
2023-03-06T08:58:43.485Z,99475.84
2023-03-06T09:01:18.103Z,99473.78
2023-03-06T09:03:44.645Z,99468.88
2023-03-06T09:06:11.549Z,99469.56
2023-03-06T09:08:38.560Z,99469.72
2023-03-06T09:11:06.043Z,99479.03
2023-03-06T09:13:32.610Z,99474.16
2023-03-06T09:15:59.152Z,99476.41
2023-03-06T09:18:25.759Z,99471.22
2023-03-06T09:20:52.368Z,99471.19
2023-03-06T09:23:18.921Z,99475.38
2023-03-06T09:25:46.158Z,99474.44
2023-03-06T09:28:12.821Z,99476.75
2023-03-06T09:30:40.751Z,99475.72
2023-03-06T09:33:07.841Z,99482.53
2023-03-06T09:35:34.385Z,99480.47
2023-03-06T09:38:01.129Z,99476.50
2023-03-06T09:41:02.714Z,99486.22
2023-03-06T09:43:35.470Z,99472.78
2023-03-06T09:46:13.678Z,99466.56
2023-03-06T09:49:13.073Z,99467.03
2023-03-06T09:51:54.550Z,99473.72
2023-03-06T09:54:34.554Z,99467.88
2023-03-06T09:57:01.076Z,99476.72
2023-03-06T09:59:28.583Z,99481.41
2023-03-06T10:02:09.998Z,99481.41
2023-03-06T10:04:42.559Z,99491.59
2023-03-06T10:07:18.471Z,99491.50
2023-03-06T10:09:57.129Z,99487.75
2023-03-06T10:12:25.602Z,99489.00
2023-03-06T10:15:10.820Z,99503.47
2023-03-06T10:17:43.294Z,99504.16
2023-03-06T10:20:22.167Z,99492.19
2023-03-06T10:23:30.379Z,99490.78
2023-03-06T10:26:12.150Z,99490.88
2023-03-06T10:28:54.029Z,99474.44
2023-03-06T10:31:24.473Z,99479.75
2023-03-06T10:34:18.969Z,99470.69
2023-03-06T10:36:45.552Z,99477.16
2023-03-06T10:39:17.357Z,99465.94
2023-03-06T10:41:45.396Z,99470.09
2023-03-06T10:44:12.468Z,99467.50
2023-03-06T10:46:45.003Z,99467.78
2023-03-06T10:49:33.928Z,99470.88
2023-03-06T10:52:05.722Z,99465.41
2023-03-06T10:54:38.198Z,99468.72
2023-03-06T10:57:20.067Z,99470.28
2023-03-06T11:00:22.923Z,99464.22
2023-03-06T11:03:17.369Z,99472.84
2023-03-06T11:06:13.025Z,99476.84
2023-03-06T11:08:42.000Z,99469.41
2023-03-06T11:11:12.950Z,99467.41
2023-03-06T11:13:42.121Z,99465.78
2023-03-06T11:16:27.390Z,99452.09
2023-03-06T11:19:05.496Z,99454.25
2023-03-06T11:21:35.353Z,99458.22
2023-03-06T11:24:18.643Z,99461.06
2023-03-06T11:26:59.605Z,99457.59
2023-03-06T11:29:43.917Z,99441.72
2023-03-06T11:32:13.467Z,99458.88
2023-03-06T11:34:59.239Z,99459.09
2023-03-06T11:37:34.476Z,99443.41
2023-03-06T11:40:01.085Z,99452.25
2023-03-06T11:42:37.880Z,99432.66
2023-03-06T11:45:23.350Z,99437.56
2023-03-06T11:48:14.201Z,99428.13
2023-03-06T11:50:42.883Z,99411.06
2023-03-06T11:53:18.667Z,99411.53
2023-03-06T11:55:51.134Z,99415.72
2023-03-06T11:58:54.929Z,99417.88
2023-03-06T12:01:47.887Z,99414.13
2023-03-06T12:04:14.389Z,99408.06
2023-03-06T12:06:59.544Z,99405.13
2023-03-06T12:09:49.110Z,99408.56
2023-03-06T12:12:46.674Z,99407.16
2023-03-06T12:15:23.847Z,99406.56
2023-03-06T12:18:14.708Z,99403.47
2023-03-06T12:20:56.714Z,99395.97
2023-03-06T12:23:33.058Z,99394.47
2023-03-06T12:26:21.923Z,99400.78
2023-03-06T12:28:59.425Z,99392.78
2023-03-06T12:31:32.220Z,99386.78
2023-03-06T12:34:11.214Z,99392.88
2023-03-06T12:36:56.381Z,99384.34
2023-03-06T12:39:47.669Z,99378.16
2023-03-06T12:42:33.026Z,99379.38
2023-03-06T12:45:29.577Z,99369.44
2023-03-06T12:47:57.267Z,99367.66
2023-03-06T12:50:32.583Z,99375.72
2023-03-06T12:53:03.826Z,99372.47
2023-03-06T12:55:39.978Z,99366.97
2023-03-06T12:58:28.074Z,99371.78
2023-03-06T13:01:13.871Z,99367.53
2023-03-06T13:04:08.132Z,99368.84
2023-03-06T13:07:04.132Z,99362.94
2023-03-06T13:09:40.087Z,99358.72
2023-03-06T13:12:28.342Z,99357.31
2023-03-06T13:14:58.384Z,99360.66
2023-03-06T13:17:34.810Z,99361.69
2023-03-06T13:20:13.847Z,99352.44
2023-03-06T13:22:42.145Z,99344.19
2023-03-06T13:25:32.726Z,99345.75
2023-03-06T13:28:03.323Z,99341.47
2023-03-06T13:30:38.766Z,99345.31
2023-03-06T13:33:30.117Z,99345.63
2023-03-06T13:35:58.791Z,99333.78
2023-03-06T13:38:36.438Z,99334.66
2023-03-06T13:41:28.097Z,99328.31
2023-03-06T13:43:56.794Z,99334.22
2023-03-06T13:46:37.195Z,99330.69
2023-03-06T13:49:14.852Z,99317.88
2023-03-06T13:51:43.218Z,99332.34
2023-03-06T13:54:28.563Z,99318.41
2023-03-06T13:57:30.079Z,99322.97
2023-03-06T14:00:31.401Z,99312.25
2023-03-06T14:03:22.633Z,99321.53
2023-03-06T14:05:50.793Z,99315.47
2023-03-06T14:08:21.925Z,99322.06
2023-03-06T14:11:00.829Z,99314.53
2023-03-06T14:13:41.825Z,99317.34
2023-03-06T14:16:20.767Z,99311.66
2023-03-06T14:18:49.514Z,99305.63
2023-03-06T14:21:42.349Z,99299.97
2023-03-06T14:24:32.570Z,99295.84
2023-03-06T14:26:59.151Z,99297.66
2023-03-06T14:29:27.999Z,99295.63
2023-03-06T14:31:57.537Z,99298.06
2023-03-06T14:34:35.866Z,99298.91
2023-03-06T14:37:08.099Z,99284.53
2023-03-06T14:39:37.290Z,99289.34
2023-03-06T14:42:21.953Z,99290.81
2023-03-06T14:45:00.137Z,99287.88
2023-03-06T14:47:29.757Z,99280.03
2023-03-06T14:50:19.341Z,99276.28
2023-03-06T14:52:46.372Z,99276.06
2023-03-06T14:55:20.770Z,99275.53
2023-03-06T14:57:51.150Z,99274.88
2023-03-06T15:00:23.190Z,99271.81
2023-03-06T15:02:52.523Z,99266.63
2023-03-06T15:05:28.928Z,99270.34
2023-03-06T15:08:00.187Z,99264.00
2023-03-06T15:10:30.305Z,99264.78
2023-03-06T15:13:10.330Z,99263.50
2023-03-06T15:15:37.121Z,99259.31
2023-03-06T15:18:34.396Z,99257.16
2023-03-06T15:21:07.790Z,99262.56
2023-03-06T15:23:40.133Z,99251.44
2023-03-06T15:26:29.611Z,99246.97
2023-03-06T15:29:09.612Z,99240.78
2023-03-06T15:31:42.147Z,99235.38
2023-03-06T15:34:11.529Z,99236.00
2023-03-06T15:36:47.384Z,99232.81
2023-03-06T15:39:31.225Z,99233.09
2023-03-06T15:42:05.966Z,99233.00
2023-03-06T15:44:33.007Z,99233.09
2023-03-06T15:47:08.498Z,99226.72
2023-03-06T15:49:38.150Z,99233.09
2023-03-06T15:52:06.939Z,99231.97
2023-03-06T15:54:33.791Z,99240.50
2023-03-06T15:57:00.874Z,99240.56
2023-03-06T15:59:33.235Z,99237.53
2023-03-06T16:02:10.731Z,99234.88
2023-03-06T16:04:37.647Z,99229.63
2023-03-06T16:07:04.201Z,99236.44
2023-03-06T16:09:30.791Z,99233.72
2023-03-06T16:11:57.346Z,99232.84
2023-03-06T16:14:24.082Z,99232.94
2023-03-06T16:16:52.607Z,99234.75
2023-03-06T16:19:28.186Z,99231.47
2023-03-06T16:21:59.021Z,99241.03
2023-03-06T16:24:26.618Z,99230.16
2023-03-06T16:26:54.986Z,99240.22
2023-03-06T16:29:24.020Z,99234.53
2023-03-06T16:31:50.766Z,99229.25
2023-03-06T16:34:19.916Z,99230.13
2023-03-06T16:36:48.005Z,99239.03
2023-03-06T16:39:19.931Z,99232.44
2023-03-06T16:41:47.213Z,99235.59
2023-03-06T16:44:13.986Z,99226.69
2023-03-06T16:46:47.249Z,99225.34
2023-03-06T16:49:25.026Z,99235.78
2023-03-06T16:51:52.953Z,99224.53
2023-03-06T16:54:20.276Z,99231.44
2023-03-06T16:56:46.934Z,99233.66
2023-03-06T16:59:13.671Z,99238.47
2023-03-06T17:01:43.107Z,99242.16
2023-03-06T17:04:11.194Z,99243.09
2023-03-06T17:06:38.433Z,99241.53
2023-03-06T17:09:05.366Z,99240.31
2023-03-06T17:11:31.910Z,99250.66
2023-03-06T17:13:58.557Z,99250.41
2023-03-06T17:16:25.159Z,99249.38
2023-03-06T17:18:52.445Z,99246.56
2023-03-06T17:21:19.165Z,99248.44
2023-03-06T17:23:46.067Z,99245.56
2023-03-06T17:26:15.373Z,99239.59
2023-03-06T17:28:43.142Z,99246.63
2023-03-06T17:31:18.054Z,99241.00
2023-03-06T17:33:45.440Z,99240.84
2023-03-06T17:36:14.394Z,99241.47
2023-03-06T17:38:41.954Z,99234.53
2023-03-06T17:41:10.534Z,99243.81
2023-03-06T17:43:38.990Z,99238.66
2023-03-06T17:46:10.668Z,99248.59
2023-03-06T17:48:37.607Z,99245.69
2023-03-06T17:51:04.848Z,99245.88
2023-03-06T17:53:31.955Z,99251.72
2023-03-06T17:55:59.107Z,99252.63
2023-03-06T17:58:27.064Z,99252.50
2023-03-06T18:00:54.094Z,99253.94
2023-03-06T18:03:20.646Z,99249.41
2023-03-06T18:05:47.288Z,99251.13
2023-03-06T18:08:14.592Z,99253.50
2023-03-06T18:10:42.011Z,99255.16
2023-03-06T18:13:10.537Z,99260.88
2023-03-06T18:15:40.943Z,99262.97
2023-03-06T18:18:08.821Z,99266.28
2023-03-06T18:20:41.213Z,99267.06
2023-03-06T18:23:07.931Z,99270.34
2023-03-06T18:25:34.769Z,99269.34
2023-03-06T18:28:01.530Z,99262.47
2023-03-06T18:30:28.093Z,99280.22
2023-03-06T18:32:54.700Z,99278.47
2023-03-06T18:35:21.792Z,99271.66
2023-03-06T18:37:48.509Z,99271.47
2023-03-06T18:40:15.630Z,99281.41
2023-03-06T18:42:42.270Z,99278.78
2023-03-06T18:45:09.931Z,99281.38
2023-03-06T18:47:36.491Z,99282.66
2023-03-06T18:50:03.266Z,99279.13
2023-03-06T18:52:29.860Z,99279.00
2023-03-06T18:54:56.550Z,99288.09
2023-03-06T18:57:23.102Z,99289.56
2023-03-06T18:59:50.107Z,99285.34
2023-03-06T19:02:17.088Z,99285.31
2023-03-06T19:04:43.607Z,99283.44
2023-03-06T19:07:10.190Z,99283.25
2023-03-06T19:09:36.803Z,99281.38
2023-03-06T19:12:03.578Z,99273.59
2023-03-06T19:14:30.397Z,99283.69
2023-03-06T19:16:57.063Z,99280.47
2023-03-06T19:19:26.359Z,99275.13
2023-03-06T19:21:53.557Z,99272.66
2023-03-06T19:24:20.125Z,99272.66
2023-03-06T19:26:46.641Z,99263.81
2023-03-06T19:29:13.235Z,99266.94
2023-03-06T19:31:39.796Z,99271.84
2023-03-06T19:34:06.394Z,99269.06
2023-03-06T19:36:34.271Z,99263.94
2023-03-06T19:39:03.662Z,99262.88
2023-03-06T19:41:31.230Z,99259.31
2023-03-06T19:43:59.837Z,99264.41
2023-03-06T19:46:27.115Z,99255.00
2023-03-06T19:48:57.733Z,99256.50
2023-03-06T19:51:25.608Z,99255.56
2023-03-06T19:53:52.527Z,99257.22
2023-03-06T19:56:26.269Z,99255.72
2023-03-06T19:58:53.179Z,99257.47
2023-03-06T20:01:21.428Z,99255.78
2023-03-06T20:03:50.005Z,99253.06
2023-03-06T20:06:19.213Z,99246.97
2023-03-06T20:08:47.255Z,99256.91
2023-03-06T20:11:16.533Z,99258.72
2023-03-06T20:13:47.369Z,99252.59
2023-03-06T20:16:14.705Z,99261.84
2023-03-06T20:18:41.509Z,99251.56
2023-03-06T20:21:08.086Z,99254.88
2023-03-06T20:23:34.978Z,99261.84
2023-03-06T20:26:03.551Z,99252.66
2023-03-06T20:28:30.453Z,99258.41
2023-03-06T20:30:57.346Z,99260.81
2023-03-06T20:33:24.033Z,99259.03
2023-03-06T20:35:50.646Z,99253.13
2023-03-06T20:38:17.216Z,99258.47
2023-03-06T20:40:44.033Z,99260.69
2023-03-06T20:43:10.756Z,99254.00
2023-03-06T20:45:37.355Z,99250.38
2023-03-06T20:48:03.934Z,99253.66
2023-03-06T20:50:31.204Z,99252.81
2023-03-06T20:52:58.879Z,99256.19
2023-03-06T20:55:25.606Z,99254.06
2023-03-06T20:57:52.551Z,99253.78
2023-03-06T21:00:20.941Z,99260.28
2023-03-06T21:02:47.540Z,99252.84
2023-03-06T21:05:14.283Z,99257.75
2023-03-06T21:07:40.968Z,99257.81
2023-03-06T21:10:08.633Z,99259.56
2023-03-06T21:12:35.123Z,99262.13
2023-03-06T21:15:01.842Z,99259.41
2023-03-06T21:17:30.252Z,99261.06
2023-03-06T21:19:58.396Z,99258.78
2023-03-06T21:22:25.463Z,99260.69
2023-03-06T21:24:52.011Z,99261.06
2023-03-06T21:27:18.545Z,99265.25
2023-03-06T21:29:45.448Z,99264.97
2023-03-06T21:32:12.029Z,99258.97
2023-03-06T21:34:38.553Z,99266.34
2023-03-06T21:37:05.072Z,99255.53
2023-03-06T21:39:31.633Z,99262.81
2023-03-06T21:41:58.178Z,99262.66
2023-03-06T21:44:24.771Z,99259.16
2023-03-06T21:46:51.324Z,99255.53
2023-03-06T21:49:18.281Z,99253.84
2023-03-06T21:51:44.805Z,99250.13
2023-03-06T21:54:13.061Z,99245.09
2023-03-06T21:56:39.667Z,99252.03
2023-03-06T21:59:06.230Z,99242.72
2023-03-06T22:01:32.808Z,99252.88
2023-03-06T22:04:00.137Z,99247.78
2023-03-06T22:06:30.395Z,99234.16
2023-03-06T22:08:59.242Z,99240.72
2023-03-06T22:11:28.156Z,99235.31
2023-03-06T22:13:54.705Z,99221.84
2023-03-06T22:16:21.813Z,99220.09
2023-03-06T22:18:51.101Z,99225.78
2023-03-06T22:21:19.596Z,99221.78
2023-03-06T22:23:54.727Z,99222.38
2023-03-06T22:26:21.597Z,99220.44
2023-03-06T22:28:48.283Z,99220.50
2023-03-06T22:31:20.370Z,99219.09
2023-03-06T22:33:47.052Z,99214.72
2023-03-06T22:36:15.774Z,99205.97
2023-03-06T22:38:44.686Z,99211.91
2023-03-06T22:41:12.758Z,99209.13
2023-03-06T22:43:39.706Z,99206.41
2023-03-06T22:46:11.857Z,99198.91
2023-03-06T22:48:38.565Z,99192.22
2023-03-06T22:51:07.403Z,99197.16
2023-03-06T22:53:34.451Z,99189.44
2023-03-06T22:56:02.521Z,99188.31
2023-03-06T22:58:36.842Z,99194.31
2023-03-06T23:01:08.918Z,99196.19
2023-03-06T23:03:37.273Z,99191.72
2023-03-06T23:06:16.044Z,99197.88
2023-03-06T23:08:43.945Z,99186.94
2023-03-06T23:11:13.278Z,99191.84
2023-03-06T23:13:40.060Z,99189.19
2023-03-06T23:16:08.894Z,99184.06
2023-03-06T23:18:36.905Z,99186.00
2023-03-06T23:21:14.489Z,99180.06
2023-03-06T23:23:41.776Z,99182.34
2023-03-06T23:26:09.063Z,99178.22
2023-03-06T23:28:35.865Z,99168.59
2023-03-06T23:31:14.710Z,99174.81
2023-03-06T23:33:41.778Z,99170.09
2023-03-06T23:36:11.320Z,99163.34
2023-03-06T23:38:38.513Z,99168.78
2023-03-06T23:41:12.214Z,99164.97
2023-03-06T23:43:39.134Z,99161.44
2023-03-06T23:46:07.300Z,99165.97
2023-03-06T23:48:35.795Z,99163.19
2023-03-06T23:51:07.372Z,99158.88
2023-03-06T23:53:34.087Z,99149.81
2023-03-06T23:56:00.857Z,99149.25
2023-03-06T23:58:27.473Z,99149.66
